Cincinnati, Ohio
Traffic Map
Current Weather Conditions
Cincinnati, Ohio
Overcast Light Rain
Overcast
46°
Feels Like: 40°
Wind Chill: 40° Ceiling: 900
Heat Index: 46° Visibility: 2.5mi
Dew Point: 45° Wind: 15mph
Humidity: 96% Direction: 350° (N)
Pressure: 29.55in Gusts: 0mph
Raw Report DataKLUK 231553Z 35013KT 2 1/2SM -RA BR BKN009 OVC013 08/07 A2955 RMK AO2 RAB42 SLP006 P0000 T00780072
Traffic Incident Summary
Active as of:
Severity:
Category:
InformationThere was an issue retrieving the traffic information for this location. Please try a different location or try again shortly.
Advertisements
Track Severe Weather on mobile